This is the latest recevied weather packets stored in our database for station/object IZ5TJI-3. If no packets are shown the sender has not sent any weather packets the latest 1 day(s).
| Time | Temp. | Humidity | Pressure | Rain* | Wind** | Luminosity | Snow |
|---|---|---|---|---|---|---|---|
| 1778071480 | 20° C | 71% | 1009 hPa | 0 mm | - | - | - |
| 1778067880 | 19.44° C | 73% | 1008.8 hPa | 0 mm | - | - | - |
| 1778066980 | 19.44° C | 73% | 1009 hPa | 0 mm | - | - | - |
| 1778066080 | 18.33° C | 77% | 1009 hPa | 0 mm | - | - | - |
| 1778065180 | 18.89° C | 74% | 1009.2 hPa | 0 mm | - | - | - |
| 1778064280 | 19.44° C | 71% | 1009.2 hPa | 0 mm | - | - | - |
| 1778060680 | 18.89° C | 73% | 1009.1 hPa | 0 mm | - | - | - |
| 1778057980 | 17.78° C | 76% | 1009.5 hPa | 0 mm | - | - | - |
| 1778052580 | 15° C | 91% | 1009.3 hPa | 0 mm | - | - | - |
| 1778047181 | 13.89° C | 92% | 1008.9 hPa | 0.51 mm | - | - | - |
| 1778046281 | 13.89° C | 92% | 1009.1 hPa | 0.51 mm | - | - | - |
| 1778045381 | 13.89° C | 92% | 1009.1 hPa | 0 mm | - | - | - |
| 1778044481 | 13.89° C | 92% | 1008.9 hPa | 0 mm | - | - | - |
| 1778043581 | 13.89° C | 92% | 1008.8 hPa | 0 mm | - | - | - |
| 1778042681 | 13.89° C | 92% | 1008.6 hPa | 0 mm | - | - | - |
| 1778041781 | 13.89° C | 92% | 1008.9 hPa | 0 mm | - | - | - |
| 1778040912 | 13.89° C | 92% | 1009 hPa | 0 mm | - | - | - |
| 1778040881 | 13.89° C | 92% | 1009 hPa | 0 mm | - | - | - |
| 1778039981 | 13.89° C | 92% | 1009.2 hPa | 1.02 mm | - | - | - |
| 1778039081 | 13.89° C | 92% | 1009.4 hPa | 2.54 mm | - | - | - |
| 1778038181 | 13.89° C | 92% | 1009.4 hPa | 2.54 mm | - | - | - |
| 1778035514 | 14.44° C | 92% | 1009.6 hPa | 12.19 mm | - | - | - |
| 1778034614 | 13.89° C | 93% | 1009.2 hPa | 24.64 mm | - | - | - |
| 1778033714 | 13.89° C | 93% | 1009.4 hPa | 21.59 mm | - | - | - |
| 1778025615 | 14.44° C | 92% | 1010.6 hPa | 0 mm | - | - | - |
* Rain latest hour (hover to see other rain measurements)
** Current wind speed in m/s (hover to see current wind gust speed)